Aarschot, Belgium
Current Conditions -  °F | °C
As of 4:25 AM on Sunday 23 Nov 2014 (Local Time) from EBDT Reporting Station
Broken Clouds Broken Clouds  
Wind Chill: 10°   Ceiling: 13000
Heat Index: 10°   Visibility: 6mi
Dew Point:   Wind: 2mph
Humidity: 94%   Direction: NA
Pressure: 30.03"   Gusts: NA
Location:  50.99°N, 4.84°E
Report Text: EBDT 230325Z AUTO VRB02KT 9999 SCT110/// BKN130/// BKN150/// 10/09 Q1017 BLU
Loading
Personal Weather Stations






























Interactive Weather Map New forecast layout! Learn more

10-Day Weather Forecast

Advertisements
Track Severe Weather on mobile